sensor_id;sensor_type;location;lat;lon;timestamp;pressure;altitude;pressure_sealevel;temperature;humidity
26775;BME280;14362;51.902;7.626;2023-11-18T00:00:26;102006.75;;;1.23;90.66
26775;BME280;14362;51.902;7.626;2023-11-18T00:04:28;102012.03;;;1.24;90.24
26775;BME280;14362;51.902;7.626;2023-11-18T00:08:29;102012.84;;;1.23;90.37
26775;BME280;14362;51.902;7.626;2023-11-18T00:12:32;102023.38;;;1.28;90.47
26775;BME280;14362;51.902;7.626;2023-11-18T00:16:35;102005.97;;;1.25;90.33
26775;BME280;14362;51.902;7.626;2023-11-18T00:20:37;102008.56;;;1.25;90.38
26775;BME280;14362;51.902;7.626;2023-11-18T00:24:38;102004.38;;;1.29;90.36
26775;BME280;14362;51.902;7.626;2023-11-18T00:28:41;102001.69;;;1.26;90.22
26775;BME280;14362;51.902;7.626;2023-11-18T00:32:43;101991.91;;;1.19;89.98
26775;BME280;14362;51.902;7.626;2023-11-18T00:36:44;101994.41;;;1.15;90.57
26775;BME280;14362;51.902;7.626;2023-11-18T00:40:45;101996.03;;;1.13;90.32
26775;BME280;14362;51.902;7.626;2023-11-18T00:44:48;101996.75;;;1.09;90.29
26775;BME280;14362;51.902;7.626;2023-11-18T00:48:50;101991.50;;;1.08;90.49
26775;BME280;14362;51.902;7.626;2023-11-18T00:52:51;101994.06;;;1.06;90.61
26775;BME280;14362;51.902;7.626;2023-11-18T00:56:53;101994.94;;;1.07;90.62
26775;BME280;14362;51.902;7.626;2023-11-18T01:00:55;102000.97;;;1.07;90.61
26775;BME280;14362;51.902;7.626;2023-11-18T01:04:57;101996.41;;;1.00;90.57
26775;BME280;14362;51.902;7.626;2023-11-18T01:08:58;101997.69;;;0.89;90.06
26775;BME280;14362;51.902;7.626;2023-11-18T01:13:00;101992.97;;;0.78;89.95
26775;BME280;14362;51.902;7.626;2023-11-18T01:17:04;101995.00;;;0.86;90.09
26775;BME280;14362;51.902;7.626;2023-11-18T01:21:06;102010.78;;;0.69;90.47
26775;BME280;14362;51.902;7.626;2023-11-18T01:25:09;102010.72;;;0.68;90.13
26775;BME280;14362;51.902;7.626;2023-11-18T01:29:10;102012.47;;;0.69;90.59
26775;BME280;14362;51.902;7.626;2023-11-18T01:33:13;102009.69;;;0.64;90.39
26775;BME280;14362;51.902;7.626;2023-11-18T01:37:15;102007.13;;;0.64;90.47
26775;BME280;14362;51.902;7.626;2023-11-18T01:41:16;102017.94;;;0.54;89.58
26775;BME280;14362;51.902;7.626;2023-11-18T01:45:19;102020.97;;;0.43;90.12
26775;BME280;14362;51.902;7.626;2023-11-18T01:49:22;102017.56;;;0.44;90.09
26775;BME280;14362;51.902;7.626;2023-11-18T01:53:24;102015.47;;;0.36;89.70
26775;BME280;14362;51.902;7.626;2023-11-18T01:57:27;102021.63;;;0.38;90.30
26775;BME280;14362;51.902;7.626;2023-11-18T02:01:29;102009.28;;;0.32;90.38
26775;BME280;14362;51.902;7.626;2023-11-18T02:05:33;102004.59;;;0.23;89.75
26775;BME280;14362;51.902;7.626;2023-11-18T02:09:35;102018.44;;;0.24;89.96
26775;BME280;14362;51.902;7.626;2023-11-18T02:13:38;102016.47;;;0.18;89.78
26775;BME280;14362;51.902;7.626;2023-11-18T02:17:43;102012.91;;;0.14;89.90
26775;BME280;14362;51.902;7.626;2023-11-18T02:21:48;102010.03;;;0.08;89.84
26775;BME280;14362;51.902;7.626;2023-11-18T02:25:52;101984.91;;;0.06;89.90
26775;BME280;14362;51.902;7.626;2023-11-18T02:29:54;102000.56;;;0.09;90.31
26775;BME280;14362;51.902;7.626;2023-11-18T02:34:00;102007.44;;;0.08;90.41
26775;BME280;14362;51.902;7.626;2023-11-18T02:38:04;102011.50;;;0.02;90.21
26775;BME280;14362;51.902;7.626;2023-11-18T02:42:10;102009.66;;;-0.01;90.30
26775;BME280;14362;51.902;7.626;2023-11-18T02:46:14;101999.09;;;-0.06;90.29
26775;BME280;14362;51.902;7.626;2023-11-18T02:50:16;102012.78;;;-0.08;90.03
26775;BME280;14362;51.902;7.626;2023-11-18T02:54:19;102009.44;;;-0.06;90.32
26775;BME280;14362;51.902;7.626;2023-11-18T02:58:22;101998.59;;;0.03;90.58
26775;BME280;14362;51.902;7.626;2023-11-18T03:02:23;101996.28;;;0.09;90.27
26775;BME280;14362;51.902;7.626;2023-11-18T03:06:28;101998.03;;;0.10;89.83
26775;BME280;14362;51.902;7.626;2023-11-18T03:10:29;101986.91;;;0.13;89.78
26775;BME280;14362;51.902;7.626;2023-11-18T03:14:34;101988.19;;;0.23;89.86
26775;BME280;14362;51.902;7.626;2023-11-18T03:18:38;101989.06;;;0.23;90.15
26775;BME280;14362;51.902;7.626;2023-11-18T03:22:40;101973.47;;;0.22;89.71
26775;BME280;14362;51.902;7.626;2023-11-18T03:26:41;101978.03;;;0.27;90.16
26775;BME280;14362;51.902;7.626;2023-11-18T03:30:44;101978.69;;;0.23;89.62
26775;BME280;14362;51.902;7.626;2023-11-18T03:34:47;101972.66;;;0.23;89.73
26775;BME280;14362;51.902;7.626;2023-11-18T03:38:48;101960.41;;;0.19;89.57
26775;BME280;14362;51.902;7.626;2023-11-18T03:42:50;101961.00;;;0.13;89.93
26775;BME280;14362;51.902;7.626;2023-11-18T03:46:52;101963.59;;;0.13;90.25
26775;BME280;14362;51.902;7.626;2023-11-18T03:50:54;101962.47;;;0.06;90.10
26775;BME280;14362;51.902;7.626;2023-11-18T03:54:55;101966.50;;;-0.01;90.42
26775;BME280;14362;51.902;7.626;2023-11-18T03:58:57;101968.22;;;-0.01;90.08
26775;BME280;14362;51.902;7.626;2023-11-18T04:02:59;101974.88;;;-0.08;90.35
26775;BME280;14362;51.902;7.626;2023-11-18T04:07:01;101974.78;;;-0.09;89.87
26775;BME280;14362;51.902;7.626;2023-11-18T04:11:03;101974.22;;;-0.02;90.59
26775;BME280;14362;51.902;7.626;2023-11-18T04:15:05;101983.72;;;-0.03;90.51
26775;BME280;14362;51.902;7.626;2023-11-18T04:19:09;101954.16;;;-0.08;90.01
26775;BME280;14362;51.902;7.626;2023-11-18T04:23:10;101966.03;;;-0.13;90.50
26775;BME280;14362;51.902;7.626;2023-11-18T04:27:13;101961.44;;;-0.19;90.06
26775;BME280;14362;51.902;7.626;2023-11-18T04:31:14;101948.72;;;-0.14;89.90
26775;BME280;14362;51.902;7.626;2023-11-18T04:35:17;101949.59;;;-0.13;90.29
26775;BME280;14362;51.902;7.626;2023-11-18T04:39:19;101946.25;;;-0.11;90.24
26775;BME280;14362;51.902;7.626;2023-11-18T04:43:21;101935.13;;;-0.08;89.92
26775;BME280;14362;51.902;7.626;2023-11-18T04:47:23;101928.19;;;-0.09;90.63
26775;BME280;14362;51.902;7.626;2023-11-18T04:51:26;101932.59;;;-0.07;90.00
26775;BME280;14362;51.902;7.626;2023-11-18T04:55:28;101914.69;;;-0.02;90.08
26775;BME280;14362;51.902;7.626;2023-11-18T04:59:29;101908.75;;;0.01;90.31
26775;BME280;14362;51.902;7.626;2023-11-18T05:03:31;101914.75;;;-0.01;90.74
26775;BME280;14362;51.902;7.626;2023-11-18T05:07:34;101914.41;;;0.13;90.47
26775;BME280;14362;51.902;7.626;2023-11-18T05:11:36;101904.25;;;0.18;89.97
26775;BME280;14362;51.902;7.626;2023-11-18T05:15:39;101897.50;;;0.21;90.58
26775;BME280;14362;51.902;7.626;2023-11-18T05:19:40;101898.50;;;0.25;90.13
26775;BME280;14362;51.902;7.626;2023-11-18T05:23:44;101887.38;;;0.27;90.03
26775;BME280;14362;51.902;7.626;2023-11-18T05:27:45;101877.94;;;0.29;89.96
26775;BME280;14362;51.902;7.626;2023-11-18T05:31:47;101865.75;;;0.27;90.15
26775;BME280;14362;51.902;7.626;2023-11-18T05:35:48;101871.84;;;0.27;90.31
26775;BME280;14362;51.902;7.626;2023-11-18T05:39:51;101862.34;;;0.28;90.34
26775;BME280;14362;51.902;7.626;2023-11-18T05:43:59;101847.53;;;0.24;89.87
26775;BME280;14362;51.902;7.626;2023-11-18T05:48:01;101855.22;;;0.22;89.95
26775;BME280;14362;51.902;7.626;2023-11-18T05:52:03;101869.31;;;0.29;90.36
26775;BME280;14362;51.902;7.626;2023-11-18T05:56:07;101856.59;;;0.35;90.33
26775;BME280;14362;51.902;7.626;2023-11-18T06:00:10;101861.88;;;0.38;90.05
26775;BME280;14362;51.902;7.626;2023-11-18T06:04:15;101867.31;;;0.44;90.63
26775;BME280;14362;51.902;7.626;2023-11-18T06:08:16;101887.38;;;0.50;89.94
26775;BME280;14362;51.902;7.626;2023-11-18T06:12:20;101878.19;;;0.58;90.50
26775;BME280;14362;51.902;7.626;2023-11-18T06:16:22;101865.41;;;0.63;90.01
26775;BME280;14362;51.902;7.626;2023-11-18T06:20:24;101863.00;;;0.68;90.09
26775;BME280;14362;51.902;7.626;2023-11-18T06:24:25;101868.22;;;0.69;90.13
26775;BME280;14362;51.902;7.626;2023-11-18T06:28:29;101860.41;;;0.68;90.18
26775;BME280;14362;51.902;7.626;2023-11-18T06:32:31;101874.13;;;0.65;90.06
26775;BME280;14362;51.902;7.626;2023-11-18T06:36:32;101869.84;;;0.67;90.02
26775;BME280;14362;51.902;7.626;2023-11-18T06:40:34;101845.63;;;0.65;90.21
26775;BME280;14362;51.902;7.626;2023-11-18T06:44:36;101855.31;;;0.71;90.24
26775;BME280;14362;51.902;7.626;2023-11-18T06:48:38;101850.94;;;0.70;90.33
26775;BME280;14362;51.902;7.626;2023-11-18T06:52:40;101844.13;;;0.72;90.48
26775;BME280;14362;51.902;7.626;2023-11-18T06:56:43;101851.13;;;0.74;90.36
26775;BME280;14362;51.902;7.626;2023-11-18T07:00:46;101857.03;;;0.70;90.07
26775;BME280;14362;51.902;7.626;2023-11-18T07:04:48;101844.19;;;0.73;89.87
26775;BME280;14362;51.902;7.626;2023-11-18T07:08:50;101847.63;;;0.74;89.52
26775;BME280;14362;51.902;7.626;2023-11-18T07:12:51;101858.84;;;0.73;89.44
26775;BME280;14362;51.902;7.626;2023-11-18T07:16:55;101863.41;;;0.80;90.25
26775;BME280;14362;51.902;7.626;2023-11-18T07:20:56;101854.06;;;0.84;89.71
26775;BME280;14362;51.902;7.626;2023-11-18T07:24:58;101850.03;;;0.92;90.02
26775;BME280;14362;51.902;7.626;2023-11-18T07:28:59;101856.16;;;0.94;89.83
26775;BME280;14362;51.902;7.626;2023-11-18T07:33:02;101861.56;;;1.00;89.94
26775;BME280;14362;51.902;7.626;2023-11-18T07:37:05;101868.63;;;1.04;89.62
26775;BME280;14362;51.902;7.626;2023-11-18T07:41:08;101860.16;;;1.10;89.81
26775;BME280;14362;51.902;7.626;2023-11-18T07:45:21;101856.97;;;1.17;89.80
26775;BME280;14362;51.902;7.626;2023-11-18T07:49:25;101826.94;;;1.24;89.35
26775;BME280;14362;51.902;7.626;2023-11-18T07:53:26;101835.75;;;1.29;89.15
26775;BME280;14362;51.902;7.626;2023-11-18T07:57:29;101815.28;;;1.37;89.00
26775;BME280;14362;51.902;7.626;2023-11-18T08:01:30;101841.38;;;1.41;89.42
26775;BME280;14362;51.902;7.626;2023-11-18T08:05:34;101839.03;;;1.49;88.92
26775;BME280;14362;51.902;7.626;2023-11-18T08:09:36;101838.31;;;1.53;89.10
26775;BME280;14362;51.902;7.626;2023-11-18T08:13:39;101845.41;;;1.59;88.82
26775;BME280;14362;51.902;7.626;2023-11-18T08:17:40;101855.25;;;1.69;89.19
26775;BME280;14362;51.902;7.626;2023-11-18T08:21:43;101859.88;;;1.78;89.16
26775;BME280;14362;51.902;7.626;2023-11-18T08:25:44;101850.63;;;1.86;89.00
26775;BME280;14362;51.902;7.626;2023-11-18T08:29:46;101845.66;;;1.94;88.91
26775;BME280;14362;51.902;7.626;2023-11-18T08:33:48;101842.44;;;2.01;88.92
26775;BME280;14362;51.902;7.626;2023-11-18T08:37:51;101836.59;;;2.08;88.92
26775;BME280;14362;51.902;7.626;2023-11-18T08:41:53;101839.44;;;2.16;88.89
26775;BME280;14362;51.902;7.626;2023-11-18T08:45:54;101842.34;;;2.25;88.85
26775;BME280;14362;51.902;7.626;2023-11-18T08:49:56;101841.53;;;2.28;88.57
26775;BME280;14362;51.902;7.626;2023-11-18T08:53:59;101836.47;;;2.33;88.11
26775;BME280;14362;51.902;7.626;2023-11-18T08:58:01;101825.31;;;2.37;88.17
26775;BME280;14362;51.902;7.626;2023-11-18T09:02:04;101826.41;;;2.43;88.50
26775;BME280;14362;51.902;7.626;2023-11-18T09:06:07;101816.13;;;2.48;88.49
26775;BME280;14362;51.902;7.626;2023-11-18T09:10:18;101798.88;;;2.50;88.13
26775;BME280;14362;51.902;7.626;2023-11-18T09:14:21;101809.38;;;2.55;88.25
26775;BME280;14362;51.902;7.626;2023-11-18T09:18:24;101791.34;;;2.59;88.03
26775;BME280;14362;51.902;7.626;2023-11-18T09:22:27;101801.00;;;2.65;88.16
26775;BME280;14362;51.902;7.626;2023-11-18T09:26:30;101789.81;;;2.68;87.75
26775;BME280;14362;51.902;7.626;2023-11-18T09:30:31;101761.47;;;2.77;87.77
26775;BME280;14362;51.902;7.626;2023-11-18T09:34:34;101745.00;;;2.76;87.30
26775;BME280;14362;51.902;7.626;2023-11-18T09:38:36;101751.19;;;2.82;87.92
26775;BME280;14362;51.902;7.626;2023-11-18T09:42:41;101749.66;;;2.90;87.55
26775;BME280;14362;51.902;7.626;2023-11-18T09:46:47;101746.47;;;3.00;87.76
26775;BME280;14362;51.902;7.626;2023-11-18T09:50:57;101763.19;;;3.08;87.83
26775;BME280;14362;51.902;7.626;2023-11-18T09:55:03;101748.66;;;3.18;87.29
26775;BME280;14362;51.902;7.626;2023-11-18T09:59:11;101737.53;;;3.24;88.14
26775;BME280;14362;51.902;7.626;2023-11-18T10:03:15;101740.41;;;3.35;87.45
26775;BME280;14362;51.902;7.626;2023-11-18T10:07:18;101748.44;;;3.44;87.78
26775;BME280;14362;51.902;7.626;2023-11-18T10:11:20;101748.63;;;3.53;87.40
26775;BME280;14362;51.902;7.626;2023-11-18T10:15:24;101746.22;;;3.61;87.86
26775;BME280;14362;51.902;7.626;2023-11-18T10:19:50;101724.00;;;3.75;87.94
26775;BME280;14362;51.902;7.626;2023-11-18T10:23:59;101727.84;;;3.93;87.12
26775;BME280;14362;51.902;7.626;2023-11-18T10:28:01;101713.13;;;3.93;87.13
26775;BME280;14362;51.902;7.626;2023-11-18T10:32:06;101715.72;;;3.93;87.85
26775;BME280;14362;51.902;7.626;2023-11-18T10:36:18;101712.22;;;3.93;88.17
26775;BME280;14362;51.902;7.626;2023-11-18T10:40:23;101701.00;;;3.97;88.29
26775;BME280;14362;51.902;7.626;2023-11-18T10:44:24;101707.16;;;4.01;88.34
26775;BME280;14362;51.902;7.626;2023-11-18T10:48:27;101692.47;;;4.04;87.43
26775;BME280;14362;51.902;7.626;2023-11-18T10:52:29;101687.50;;;4.17;88.13
26775;BME280;14362;51.902;7.626;2023-11-18T10:56:35;101669.31;;;4.18;88.04
26775;BME280;14362;51.902;7.626;2023-11-18T11:00:48;101648.50;;;4.21;88.14
26775;BME280;14362;51.902;7.626;2023-11-18T11:04:52;101633.03;;;4.31;87.80
26775;BME280;14362;51.902;7.626;2023-11-18T11:08:54;101627.97;;;4.38;87.68
26775;BME280;14362;51.902;7.626;2023-11-18T11:13:00;101609.00;;;4.45;88.22
26775;BME280;14362;51.902;7.626;2023-11-18T11:17:05;101607.38;;;4.54;88.32
26775;BME280;14362;51.902;7.626;2023-11-18T11:21:14;101603.19;;;4.62;88.16
26775;BME280;14362;51.902;7.626;2023-11-18T11:25:22;101617.94;;;4.61;88.26
26775;BME280;14362;51.902;7.626;2023-11-18T11:29:30;101634.56;;;4.67;88.02
26775;BME280;14362;51.902;7.626;2023-11-18T11:33:39;101631.16;;;4.71;87.58
26775;BME280;14362;51.902;7.626;2023-11-18T11:37:43;101610.28;;;4.72;88.58
26775;BME280;14362;51.902;7.626;2023-11-18T11:41:45;101606.00;;;4.76;87.97
26775;BME280;14362;51.902;7.626;2023-11-18T11:45:48;101599.09;;;4.78;87.57
26775;BME280;14362;51.902;7.626;2023-11-18T11:49:57;101600.06;;;4.83;88.16
26775;BME280;14362;51.902;7.626;2023-11-18T11:54:10;101592.34;;;4.89;87.44
26775;BME280;14362;51.902;7.626;2023-11-18T11:58:29;101598.50;;;4.94;87.97
26775;BME280;14362;51.902;7.626;2023-11-18T12:02:32;101594.16;;;4.95;87.90
26775;BME280;14362;51.902;7.626;2023-11-18T12:06:41;101583.81;;;5.01;87.59
26775;BME280;14362;51.902;7.626;2023-11-18T12:10:53;101587.28;;;5.03;87.55
26775;BME280;14362;51.902;7.626;2023-11-18T12:14:57;101572.56;;;5.07;88.03
26775;BME280;14362;51.902;7.626;2023-11-18T12:19:29;101570.88;;;5.09;87.69
26775;BME280;14362;51.902;7.626;2023-11-18T12:23:31;101559.53;;;5.07;87.38
26775;BME280;14362;51.902;7.626;2023-11-18T12:27:42;101560.34;;;5.04;87.50
26775;BME280;14362;51.902;7.626;2023-11-18T12:31:51;101559.59;;;5.10;88.03
26775;BME280;14362;51.902;7.626;2023-11-18T12:40:54;101509.06;;;5.05;87.61
26775;BME280;14362;51.902;7.626;2023-11-18T12:45:20;101501.22;;;5.06;88.14
26775;BME280;14362;51.902;7.626;2023-11-18T12:49:25;101490.06;;;5.18;87.28
26775;BME280;14362;51.902;7.626;2023-11-18T12:53:28;101490.03;;;5.15;87.77
26775;BME280;14362;51.902;7.626;2023-11-18T12:57:31;101486.50;;;5.11;87.69
26775;BME280;14362;51.902;7.626;2023-11-18T13:01:38;101491.66;;;5.08;87.60
26775;BME280;14362;51.902;7.626;2023-11-18T13:05:42;101481.22;;;5.08;88.16
26775;BME280;14362;51.902;7.626;2023-11-18T13:09:45;101470.00;;;5.13;88.10
26775;BME280;14362;51.902;7.626;2023-11-18T13:13:47;101469.16;;;5.15;88.46
26775;BME280;14362;51.902;7.626;2023-11-18T13:18:01;101463.88;;;5.12;88.44
26775;BME280;14362;51.902;7.626;2023-11-18T13:22:07;101447.38;;;5.15;88.45
26775;BME280;14362;51.902;7.626;2023-11-18T13:26:09;101430.88;;;5.14;88.36
26775;BME280;14362;51.902;7.626;2023-11-18T13:30:12;101437.78;;;5.12;88.28
26775;BME280;14362;51.902;7.626;2023-11-18T13:34:15;101433.47;;;5.14;88.45
26775;BME280;14362;51.902;7.626;2023-11-18T13:38:17;101428.28;;;5.19;88.85
26775;BME280;14362;51.902;7.626;2023-11-18T13:42:20;101430.06;;;5.21;88.88
26775;BME280;14362;51.902;7.626;2023-11-18T13:46:22;101402.22;;;5.22;88.90
26775;BME280;14362;51.902;7.626;2023-11-18T13:50:26;101401.41;;;5.26;89.44
26775;BME280;14362;51.902;7.626;2023-11-18T13:54:28;101392.72;;;5.28;89.21
26775;BME280;14362;51.902;7.626;2023-11-18T13:58:29;101376.28;;;5.37;89.59
26775;BME280;14362;51.902;7.626;2023-11-18T14:02:31;101371.06;;;5.37;89.19
26775;BME280;14362;51.902;7.626;2023-11-18T14:06:35;101367.63;;;5.40;89.73
26775;BME280;14362;51.902;7.626;2023-11-18T14:10:37;101362.41;;;5.43;89.70
26775;BME280;14362;51.902;7.626;2023-11-18T14:14:40;101365.03;;;5.46;89.58
26775;BME280;14362;51.902;7.626;2023-11-18T14:18:42;101352.09;;;5.55;89.43
26775;BME280;14362;51.902;7.626;2023-11-18T14:22:45;101352.09;;;5.55;89.76
26775;BME280;14362;51.902;7.626;2023-11-18T14:26:46;101319.06;;;5.62;89.89
26775;BME280;14362;51.902;7.626;2023-11-18T14:30:47;101305.09;;;5.57;89.71
26775;BME280;14362;51.902;7.626;2023-11-18T14:34:49;101298.16;;;5.60;89.54
26775;BME280;14362;51.902;7.626;2023-11-18T14:38:52;101282.50;;;5.64;89.38
26775;BME280;14362;51.902;7.626;2023-11-18T14:42:54;101275.50;;;5.64;89.64
26775;BME280;14362;51.902;7.626;2023-11-18T14:46:55;101257.22;;;5.59;89.35
26775;BME280;14362;51.902;7.626;2023-11-18T14:50:57;101255.50;;;5.65;89.57
26775;BME280;14362;51.902;7.626;2023-11-18T14:55:00;101244.16;;;5.64;89.52
26775;BME280;14362;51.902;7.626;2023-11-18T14:59:01;101229.38;;;5.63;89.68
26775;BME280;14362;51.902;7.626;2023-11-18T15:03:05;101220.66;;;5.64;89.75
26775;BME280;14362;51.902;7.626;2023-11-18T15:07:07;101227.63;;;5.60;89.72
26775;BME280;14362;51.902;7.626;2023-11-18T15:11:10;101238.97;;;5.66;89.74
26775;BME280;14362;51.902;7.626;2023-11-18T15:15:15;101218.03;;;5.59;89.74
26775;BME280;14362;51.902;7.626;2023-11-18T15:19:19;101189.34;;;5.69;89.55
26775;BME280;14362;51.902;7.626;2023-11-18T15:23:21;101171.03;;;5.64;89.46
26775;BME280;14362;51.902;7.626;2023-11-18T15:27:24;101155.38;;;5.66;89.46
26775;BME280;14362;51.902;7.626;2023-11-18T15:31:25;101126.63;;;5.64;89.38
26775;BME280;14362;51.902;7.626;2023-11-18T15:35:29;101136.22;;;5.65;89.35
26775;BME280;14362;51.902;7.626;2023-11-18T15:39:31;101137.06;;;5.61;89.03
26775;BME280;14362;51.902;7.626;2023-11-18T15:43:33;101112.69;;;5.62;89.47
26775;BME280;14362;51.902;7.626;2023-11-18T15:47:35;101106.63;;;5.66;89.33
26775;BME280;14362;51.902;7.626;2023-11-18T15:51:37;101096.16;;;5.63;89.10
26775;BME280;14362;51.902;7.626;2023-11-18T15:55:40;101087.44;;;5.61;89.72
26775;BME280;14362;51.902;7.626;2023-11-18T15:59:45;101074.41;;;5.70;89.17
26775;BME280;14362;51.902;7.626;2023-11-18T16:03:46;101064.81;;;5.63;89.05
26775;BME280;14362;51.902;7.626;2023-11-18T16:07:48;101047.38;;;5.59;89.25
26775;BME280;14362;51.902;7.626;2023-11-18T16:11:52;101023.00;;;5.57;89.41
26775;BME280;14362;51.902;7.626;2023-11-18T16:15:55;101029.94;;;5.52;89.44
26775;BME280;14362;51.902;7.626;2023-11-18T16:19:56;101032.56;;;5.56;89.23
26775;BME280;14362;51.902;7.626;2023-11-18T16:23:58;101022.97;;;5.51;89.12
26775;BME280;14362;51.902;7.626;2023-11-18T16:28:00;101016.03;;;5.54;89.56
26775;BME280;14362;51.902;7.626;2023-11-18T16:32:05;100997.72;;;5.51;88.93
26775;BME280;14362;51.902;7.626;2023-11-18T16:36:10;100989.84;;;5.43;89.21
26775;BME280;14362;51.902;7.626;2023-11-18T16:40:20;100984.66;;;5.50;89.44
26775;BME280;14362;51.902;7.626;2023-11-18T16:44:23;100997.69;;;5.42;89.42
26775;BME280;14362;51.902;7.626;2023-11-18T16:48:26;100983.78;;;5.43;89.71
26775;BME280;14362;51.902;7.626;2023-11-18T16:52:28;100969.84;;;5.42;89.97
26775;BME280;14362;51.902;7.626;2023-11-18T16:56:29;100962.88;;;5.46;89.65
26775;BME280;14362;51.902;7.626;2023-11-18T17:00:31;100948.09;;;5.48;89.18
26775;BME280;14362;51.902;7.626;2023-11-18T17:04:34;100953.31;;;5.40;89.35
26775;BME280;14362;51.902;7.626;2023-11-18T17:08:36;100943.72;;;5.38;89.78
26775;BME280;14362;51.902;7.626;2023-11-18T17:12:38;100936.78;;;5.43;89.90
26775;BME280;14362;51.902;7.626;2023-11-18T17:16:40;100916.75;;;5.47;89.59
26775;BME280;14362;51.902;7.626;2023-11-18T17:20:44;100914.16;;;5.47;90.08
26775;BME280;14362;51.902;7.626;2023-11-18T17:24:46;100904.56;;;5.45;89.84
26775;BME280;14362;51.902;7.626;2023-11-18T17:28:48;100890.66;;;5.45;89.65
26775;BME280;14362;51.902;7.626;2023-11-18T17:32:50;100877.59;;;5.50;89.82
26775;BME280;14362;51.902;7.626;2023-11-18T17:36:53;100875.84;;;5.55;89.85
26775;BME280;14362;51.902;7.626;2023-11-18T17:40:55;100858.44;;;5.52;89.76
26775;BME280;14362;51.902;7.626;2023-11-18T17:44:56;100848.84;;;5.43;90.57
26775;BME280;14362;51.902;7.626;2023-11-18T17:48:58;100856.72;;;5.47;90.23
26775;BME280;14362;51.902;7.626;2023-11-18T17:53:01;100848.88;;;5.45;89.98
26775;BME280;14362;51.902;7.626;2023-11-18T17:57:03;100839.28;;;5.45;90.46
26775;BME280;14362;51.902;7.626;2023-11-18T18:01:05;100829.72;;;5.48;90.44
26775;BME280;14362;51.902;7.626;2023-11-18T18:05:09;100823.63;;;5.53;90.26
26775;BME280;14362;51.902;7.626;2023-11-18T18:09:13;100824.50;;;5.51;90.39
26775;BME280;14362;51.902;7.626;2023-11-18T18:13:16;100821.00;;;5.56;90.14
26775;BME280;14362;51.902;7.626;2023-11-18T18:17:18;100805.34;;;5.55;90.46
26775;BME280;14362;51.902;7.626;2023-11-18T18:21:20;100807.94;;;5.56;90.55
26775;BME280;14362;51.902;7.626;2023-11-18T18:25:22;100801.84;;;5.59;91.21
26775;BME280;14362;51.902;7.626;2023-11-18T18:29:24;100798.38;;;5.58;90.86
26775;BME280;14362;51.902;7.626;2023-11-18T18:33:25;100807.09;;;5.67;90.71
26775;BME280;14362;51.902;7.626;2023-11-18T18:37:27;100798.38;;;5.69;90.86
26775;BME280;14362;51.902;7.626;2023-11-18T18:41:30;100789.69;;;5.73;91.00
26775;BME280;14362;51.902;7.626;2023-11-18T18:45:31;100772.25;;;5.72;90.91
26775;BME280;14362;51.902;7.626;2023-11-18T18:49:33;100771.38;;;5.80;90.95
26775;BME280;14362;51.902;7.626;2023-11-18T18:53:34;100774.00;;;5.81;91.35
26775;BME280;14362;51.902;7.626;2023-11-18T18:57:37;100763.56;;;5.81;90.93
26775;BME280;14362;51.902;7.626;2023-11-18T19:01:39;100715.63;;;5.87;91.05
26775;BME280;14362;51.902;7.626;2023-11-18T19:05:44;100719.97;;;5.91;91.37
26775;BME280;14362;51.902;7.626;2023-11-18T19:09:46;100717.34;;;5.96;91.40
26775;BME280;14362;51.902;7.626;2023-11-18T19:13:50;100720.84;;;6.02;91.13
26775;BME280;14362;51.902;7.626;2023-11-18T19:17:51;100720.81;;;6.05;90.98
26775;BME280;14362;51.902;7.626;2023-11-18T19:21:53;100730.38;;;6.09;91.66
26775;BME280;14362;51.902;7.626;2023-11-18T19:25:54;100727.75;;;6.16;91.41
26775;BME280;14362;51.902;7.626;2023-11-18T19:29:57;100720.78;;;6.18;91.89
26775;BME280;14362;51.902;7.626;2023-11-18T19:33:59;100725.13;;;6.22;91.45
26775;BME280;14362;51.902;7.626;2023-11-18T19:38:01;100704.19;;;6.25;91.83
26775;BME280;14362;51.902;7.626;2023-11-18T19:42:06;100692.81;;;6.37;91.81
26775;BME280;14362;51.902;7.626;2023-11-18T19:46:09;100691.94;;;6.38;91.08
26775;BME280;14362;51.902;7.626;2023-11-18T19:50:11;100690.19;;;6.38;91.54
26775;BME280;14362;51.902;7.626;2023-11-18T19:54:13;100660.53;;;6.41;91.18
26775;BME280;14362;51.902;7.626;2023-11-18T19:58:14;100657.00;;;6.47;91.36
26775;BME280;14362;51.902;7.626;2023-11-18T20:02:18;100648.28;;;6.52;91.64
26775;BME280;14362;51.902;7.626;2023-11-18T20:06:19;100645.66;;;6.54;91.62
26775;BME280;14362;51.902;7.626;2023-11-18T20:10:21;100649.09;;;6.59;91.73
26775;BME280;14362;51.902;7.626;2023-11-18T20:14:22;100632.53;;;6.60;91.18
26775;BME280;14362;51.902;7.626;2023-11-18T20:18:25;100655.16;;;6.64;92.26
26775;BME280;14362;51.902;7.626;2023-11-18T20:22:26;100651.63;;;6.70;91.87
26775;BME280;14362;51.902;7.626;2023-11-18T20:26:28;100644.59;;;6.76;91.43
26775;BME280;14362;51.902;7.626;2023-11-18T20:30:30;100649.78;;;6.83;91.54
26775;BME280;14362;51.902;7.626;2023-11-18T20:34:33;100638.44;;;6.85;91.38
26775;BME280;14362;51.902;7.626;2023-11-18T20:38:34;100630.56;;;6.88;91.92
26775;BME280;14362;51.902;7.626;2023-11-18T20:42:36;100614.81;;;6.95;91.82
26775;BME280;14362;51.902;7.626;2023-11-18T20:46:38;100607.81;;;6.97;91.69
26775;BME280;14362;51.902;7.626;2023-11-18T20:50:41;100610.38;;;7.01;92.24
26775;BME280;14362;51.902;7.626;2023-11-18T20:54:43;100608.59;;;7.06;91.96
26775;BME280;14362;51.902;7.626;2023-11-18T20:58:45;100597.22;;;7.09;91.53
26775;BME280;14362;51.902;7.626;2023-11-18T21:02:47;100588.44;;;7.16;91.73
26775;BME280;14362;51.902;7.626;2023-11-18T21:06:50;100579.69;;;7.17;92.14
26775;BME280;14362;51.902;7.626;2023-11-18T21:10:52;100577.03;;;7.23;91.84
26775;BME280;14362;51.902;7.626;2023-11-18T21:14:53;100568.25;;;7.28;92.05
26775;BME280;14362;51.902;7.626;2023-11-18T21:18:54;100565.53;;;7.34;91.43
26775;BME280;14362;51.902;7.626;2023-11-18T21:22:59;100571.63;;;7.36;92.40
26775;BME280;14362;51.902;7.626;2023-11-18T21:27:01;100577.69;;;7.41;91.96
26775;BME280;14362;51.902;7.626;2023-11-18T21:31:02;100568.00;;;7.48;92.13